createdAt,value
2023-04-09T00:01:07.411Z,100812.44
2023-04-09T00:04:09.793Z,100812.19
2023-04-09T00:07:12.062Z,100808.91
2023-04-09T00:10:14.379Z,100814.81
2023-04-09T00:13:22.594Z,100819.13
2023-04-09T00:16:30.967Z,100805.16
2023-04-09T00:19:33.324Z,100809.38
2023-04-09T00:22:35.712Z,100809.81
2023-04-09T00:25:38.114Z,100801.13
2023-04-09T00:28:40.744Z,100818.38
2023-04-09T00:31:43.195Z,100809.59
2023-04-09T00:34:45.970Z,100814.44
2023-04-09T00:37:48.338Z,100805.19
2023-04-09T00:40:51.352Z,100805.84
2023-04-09T00:43:56.546Z,100813.13
2023-04-09T00:47:00.914Z,100814.19
2023-04-09T00:50:04.633Z,100805.63
2023-04-09T00:53:07.186Z,100793.41
2023-04-09T00:56:11.332Z,100813.78
2023-04-09T00:59:13.634Z,100813.31
2023-04-09T01:02:15.999Z,100810.31
2023-04-09T01:05:19.226Z,100811.84
2023-04-09T01:08:24.595Z,100807.78
2023-04-09T01:11:43.584Z,100806.84
2023-04-09T01:14:51.254Z,100809.31
2023-04-09T01:18:11.756Z,100805.50
2023-04-09T01:21:16.678Z,100805.50
2023-04-09T01:25:09.225Z,100809.13
2023-04-09T01:28:27.796Z,100807.97
2023-04-09T01:31:32.459Z,100809.31
2023-04-09T01:34:35.358Z,100805.06
2023-04-09T01:37:37.946Z,100804.28
2023-04-09T01:40:41.018Z,100803.25
2023-04-09T01:43:43.465Z,100816.78
2023-04-09T01:46:48.258Z,100814.78
2023-04-09T01:49:50.877Z,100810.22
2023-04-09T01:52:53.717Z,100815.84
2023-04-09T01:55:58.784Z,100802.69
2023-04-09T01:59:01.150Z,100813.56
2023-04-09T02:02:11.298Z,100803.91
2023-04-09T02:05:15.785Z,100821.00
2023-04-09T02:08:21.461Z,100814.38
2023-04-09T02:11:24.073Z,100806.81
2023-04-09T02:14:27.825Z,100814.84
2023-04-09T02:17:30.275Z,100809.94
2023-04-09T02:20:32.918Z,100805.56
2023-04-09T02:23:35.446Z,100799.00
2023-04-09T02:26:38.089Z,100798.44
2023-04-09T02:29:40.923Z,100795.63
2023-04-09T02:32:43.195Z,100799.63
2023-04-09T02:35:45.639Z,100806.38
2023-04-09T02:38:47.976Z,100797.63
2023-04-09T02:41:50.272Z,100804.00
2023-04-09T02:44:52.557Z,100794.50
2023-04-09T02:47:55.318Z,100800.47
2023-04-09T02:50:58.627Z,100809.13
2023-04-09T02:54:00.943Z,100793.41
2023-04-09T02:57:03.282Z,100793.00
2023-04-09T03:00:06.166Z,100803.38
2023-04-09T03:03:08.824Z,100805.03
2023-04-09T03:06:11.516Z,100793.34
2023-04-09T03:09:13.877Z,100796.44
2023-04-09T03:12:16.285Z,100800.38
2023-04-09T03:15:18.654Z,100803.66
2023-04-09T03:18:21.218Z,100794.22
2023-04-09T03:21:23.603Z,100802.50
2023-04-09T03:24:28.879Z,100802.06
2023-04-09T03:27:35.358Z,100791.25
2023-04-09T03:30:38.702Z,100795.38
2023-04-09T03:33:42.272Z,100796.06
2023-04-09T03:36:45.531Z,100811.75
2023-04-09T03:39:56.505Z,100806.66
2023-04-09T03:43:02.465Z,100795.00
2023-04-09T03:46:16.235Z,100809.38
2023-04-09T03:49:21.289Z,100808.00
2023-04-09T03:52:23.680Z,100809.44
2023-04-09T03:55:38.012Z,100803.34
2023-04-09T03:58:49.806Z,100801.47
2023-04-09T04:01:53.477Z,100805.16
2023-04-09T04:04:56.062Z,100811.66
2023-04-09T04:08:01.425Z,100803.25
2023-04-09T04:11:05.822Z,100825.31
2023-04-09T04:14:09.178Z,100800.41
2023-04-09T04:17:12.146Z,100804.34
2023-04-09T04:20:15.036Z,100808.81
2023-04-09T04:23:29.492Z,100815.66
2023-04-09T04:26:39.986Z,100814.66
2023-04-09T04:29:43.315Z,100824.06
2023-04-09T04:32:59.824Z,100818.88
2023-04-09T04:36:15.015Z,100826.63
2023-04-09T04:39:21.886Z,100814.84
2023-04-09T04:42:33.904Z,100825.91
2023-04-09T04:45:40.424Z,100824.91
2023-04-09T04:48:46.900Z,100821.44
2023-04-09T04:51:49.291Z,100830.66
2023-04-09T04:54:52.635Z,100825.81
2023-04-09T04:57:58.272Z,100833.50
2023-04-09T05:01:03.949Z,100831.06
2023-04-09T05:04:06.418Z,100830.59
2023-04-09T05:07:10.538Z,100835.50
2023-04-09T05:10:20.630Z,100838.78
2023-04-09T05:13:24.105Z,100834.53
2023-04-09T05:16:27.281Z,100837.16
2023-04-09T05:19:37.313Z,100845.66
2023-04-09T05:22:39.700Z,100845.53
2023-04-09T05:25:42.748Z,100849.94
2023-04-09T05:28:54.057Z,100850.41
2023-04-09T05:31:58.136Z,100855.50
2023-04-09T05:35:06.278Z,100857.34
2023-04-09T05:38:14.151Z,100865.56
2023-04-09T05:41:19.106Z,100856.25
2023-04-09T05:44:37.242Z,100860.28
2023-04-09T05:47:47.828Z,100863.75
2023-04-09T05:50:55.792Z,100856.19
2023-04-09T05:54:01.507Z,100859.97
2023-04-09T05:57:08.460Z,100865.75
2023-04-09T06:00:14.152Z,100870.50
2023-04-09T06:03:19.594Z,100868.97
2023-04-09T06:06:22.352Z,100860.75
2023-04-09T06:09:24.661Z,100862.56
2023-04-09T06:12:26.901Z,100876.28
2023-04-09T06:15:29.270Z,100863.09
2023-04-09T06:18:34.840Z,100871.88
2023-04-09T06:21:37.211Z,100878.91
2023-04-09T06:24:39.543Z,100871.59
2023-04-09T06:27:41.883Z,100865.78
2023-04-09T06:30:44.407Z,100868.88
2023-04-09T06:33:46.784Z,100872.41
2023-04-09T06:36:49.139Z,100874.69
2023-04-09T06:40:00.510Z,100882.66
2023-04-09T06:43:04.051Z,100871.22
2023-04-09T06:46:17.399Z,100871.69
2023-04-09T06:49:19.794Z,100870.44
2023-04-09T06:52:22.069Z,100883.81
2023-04-09T06:55:24.533Z,100875.25
2023-04-09T06:58:26.977Z,100874.75
2023-04-09T07:01:29.371Z,100886.28
2023-04-09T07:04:31.845Z,100881.44
2023-04-09T07:07:34.202Z,100891.03
2023-04-09T07:10:36.811Z,100894.59
2023-04-09T07:13:39.108Z,100891.28
2023-04-09T07:16:41.427Z,100898.66
2023-04-09T07:19:43.752Z,100907.78
2023-04-09T07:22:46.127Z,100900.06
2023-04-09T07:25:48.497Z,100912.34
2023-04-09T07:28:50.810Z,100909.13
2023-04-09T07:31:53.158Z,100903.00
2023-04-09T07:34:55.925Z,100910.91
2023-04-09T07:37:59.112Z,100904.53
2023-04-09T07:41:01.676Z,100899.88
2023-04-09T07:44:04.202Z,100914.28
2023-04-09T07:47:08.038Z,100905.72
2023-04-09T07:50:10.863Z,100909.59
2023-04-09T07:53:13.161Z,100911.88
2023-04-09T07:56:15.843Z,100908.03
2023-04-09T07:59:18.431Z,100903.84
2023-04-09T08:02:21.405Z,100904.94
2023-04-09T08:05:23.957Z,100911.03
2023-04-09T08:08:26.396Z,100918.31
2023-04-09T08:11:28.790Z,100927.34
2023-04-09T08:14:31.294Z,100912.63
2023-04-09T08:17:33.726Z,100910.75
2023-04-09T08:20:36.174Z,100917.88
2023-04-09T08:23:38.518Z,100915.38
2023-04-09T08:26:41.970Z,100927.78
2023-04-09T08:29:44.401Z,100922.09
2023-04-09T08:32:47.249Z,100910.72
2023-04-09T08:35:49.590Z,100931.38
2023-04-09T08:38:53.195Z,100930.19
2023-04-09T08:41:59.244Z,100925.38
2023-04-09T08:45:04.658Z,100935.00
2023-04-09T08:48:09.789Z,100942.50
2023-04-09T08:51:20.035Z,100939.56
2023-04-09T08:54:23.474Z,100948.81
2023-04-09T08:57:25.908Z,100946.84
2023-04-09T09:00:28.218Z,100948.81
2023-04-09T09:03:30.707Z,100938.03
2023-04-09T09:06:35.649Z,100945.63
2023-04-09T09:09:55.122Z,100955.78
2023-04-09T09:12:57.420Z,100951.81
2023-04-09T09:16:14.167Z,100956.56
2023-04-09T09:19:30.613Z,100960.59
2023-04-09T09:22:54.981Z,100958.22
2023-04-09T09:25:57.877Z,100953.84
2023-04-09T09:29:04.229Z,100954.63
2023-04-09T09:32:13.681Z,100960.34
2023-04-09T09:35:16.134Z,100948.94
2023-04-09T09:38:18.559Z,100952.72
2023-04-09T09:41:21.083Z,100959.56
2023-04-09T09:44:33.625Z,100947.53
2023-04-09T09:47:36.801Z,100946.66
2023-04-09T09:50:42.091Z,100950.38
2023-04-09T09:53:46.573Z,100949.19
2023-04-09T09:56:52.738Z,100944.31
2023-04-09T10:00:00.688Z,100933.78
2023-04-09T10:03:13.467Z,100950.00
2023-04-09T10:06:15.999Z,100943.22
2023-04-09T10:09:19.302Z,100938.50
2023-04-09T10:12:25.386Z,100935.47
2023-04-09T10:15:31.230Z,100944.31
2023-04-09T10:18:33.816Z,100942.72
2023-04-09T10:21:39.523Z,100947.47
2023-04-09T10:24:43.305Z,100942.75
2023-04-09T10:27:46.431Z,100937.28
2023-04-09T10:30:48.840Z,100939.78
2023-04-09T10:33:51.166Z,100941.00
2023-04-09T10:36:56.501Z,100935.94
2023-04-09T10:39:58.826Z,100940.13
2023-04-09T10:43:01.875Z,100939.94
2023-04-09T10:46:10.164Z,100930.88
2023-04-09T10:49:13.831Z,100944.31
2023-04-09T10:52:16.492Z,100942.13
2023-04-09T10:55:37.973Z,100936.66
2023-04-09T10:58:40.283Z,100931.53
2023-04-09T11:01:52.891Z,100929.69
2023-04-09T11:05:23.434Z,100942.44
2023-04-09T11:08:30.511Z,100931.94
2023-04-09T11:11:34.641Z,100936.44
2023-04-09T11:14:36.948Z,100937.09
2023-04-09T11:17:39.348Z,100935.91
2023-04-09T11:20:41.957Z,100935.75
2023-04-09T11:23:52.088Z,100932.69
2023-04-09T11:26:55.016Z,100932.91
2023-04-09T11:29:57.406Z,100940.50
2023-04-09T11:32:59.869Z,100923.06
2023-04-09T11:36:05.560Z,100926.16
2023-04-09T11:39:08.030Z,100931.09
2023-04-09T11:42:14.891Z,100917.78
2023-04-09T11:45:18.126Z,100917.22
2023-04-09T11:48:23.423Z,100919.47
2023-04-09T11:51:27.374Z,100913.72
2023-04-09T11:54:36.266Z,100924.38
2023-04-09T11:57:43.079Z,100926.84
2023-04-09T12:00:45.773Z,100919.44
2023-04-09T12:03:56.277Z,100918.63
2023-04-09T12:06:59.011Z,100919.63
2023-04-09T12:10:06.243Z,100910.81
2023-04-09T12:13:13.783Z,100914.91
2023-04-09T12:16:19.857Z,100918.81
2023-04-09T12:19:25.910Z,100900.88
2023-04-09T12:22:28.222Z,100905.22
2023-04-09T12:25:32.650Z,100899.25
2023-04-09T12:28:35.054Z,100902.09
2023-04-09T12:31:37.493Z,100894.66
2023-04-09T12:34:39.954Z,100893.75
2023-04-09T12:37:43.940Z,100886.41
2023-04-09T12:40:46.245Z,100883.78
2023-04-09T12:43:49.473Z,100883.66
2023-04-09T12:46:51.773Z,100884.25
2023-04-09T12:49:54.696Z,100879.44
2023-04-09T12:52:57.005Z,100882.25
2023-04-09T12:55:59.356Z,100881.47
2023-04-09T12:59:01.965Z,100881.09
2023-04-09T13:02:04.448Z,100880.31
2023-04-09T13:05:07.504Z,100869.56
2023-04-09T13:08:09.882Z,100857.28
2023-04-09T13:11:12.587Z,100868.72
2023-04-09T13:14:14.884Z,100848.13
2023-04-09T13:17:17.324Z,100866.19
2023-04-09T13:20:19.824Z,100855.72
2023-04-09T13:23:22.164Z,100868.25
2023-04-09T13:26:24.592Z,100860.91
2023-04-09T13:29:29.257Z,100858.09
2023-04-09T13:32:31.544Z,100857.34
2023-04-09T13:35:34.175Z,100853.75
2023-04-09T13:38:36.650Z,100850.72
2023-04-09T13:41:39.037Z,100850.00
2023-04-09T13:44:45.072Z,100847.38
2023-04-09T13:47:47.507Z,100843.66
2023-04-09T13:50:49.977Z,100859.19
2023-04-09T13:53:52.561Z,100850.91
2023-04-09T13:56:54.790Z,100848.91
2023-04-09T13:59:57.106Z,100845.94
2023-04-09T14:02:59.561Z,100844.63
2023-04-09T14:06:02.282Z,100848.75
2023-04-09T14:09:04.659Z,100829.31
2023-04-09T14:12:07.079Z,100842.25
2023-04-09T14:15:10.454Z,100838.31
2023-04-09T14:18:12.787Z,100841.81
2023-04-09T14:21:15.735Z,100831.84
2023-04-09T14:24:20.270Z,100839.34
2023-04-09T14:27:23.043Z,100835.31
2023-04-09T14:30:25.464Z,100827.44
2023-04-09T14:33:28.080Z,100825.69
2023-04-09T14:36:31.754Z,100836.41
2023-04-09T14:39:34.074Z,100826.59
2023-04-09T14:42:36.733Z,100822.13
2023-04-09T14:45:38.942Z,100833.03
2023-04-09T14:48:41.300Z,100821.09
2023-04-09T14:51:43.670Z,100823.88
2023-04-09T14:54:46.476Z,100829.22
2023-04-09T14:57:48.819Z,100824.31
2023-04-09T15:00:51.289Z,100822.88
2023-04-09T15:03:54.143Z,100821.88
2023-04-09T15:06:56.946Z,100825.38
2023-04-09T15:10:02.089Z,100817.81
2023-04-09T15:13:04.436Z,100822.56
2023-04-09T15:16:07.230Z,100812.59
2023-04-09T15:19:09.590Z,100825.09
2023-04-09T15:22:11.942Z,100817.13
2023-04-09T15:25:14.710Z,100820.00
2023-04-09T15:28:17.222Z,100804.19
2023-04-09T15:31:19.848Z,100814.84
2023-04-09T15:34:22.334Z,100810.09
2023-04-09T15:37:24.697Z,100811.75
2023-04-09T15:40:28.767Z,100814.03
2023-04-09T15:43:31.876Z,100819.75
2023-04-09T15:46:34.469Z,100818.78
2023-04-09T15:49:37.150Z,100822.03
2023-04-09T15:52:39.511Z,100806.88
2023-04-09T15:55:42.254Z,100814.03
2023-04-09T15:58:44.578Z,100816.34
2023-04-09T16:01:46.878Z,100812.59
2023-04-09T16:04:49.392Z,100814.88
2023-04-09T16:07:52.198Z,100808.13
2023-04-09T16:10:54.485Z,100815.09
2023-04-09T16:13:57.268Z,100816.78
2023-04-09T16:16:59.881Z,100827.63
2023-04-09T16:20:02.551Z,100818.41
2023-04-09T16:23:04.867Z,100819.44
2023-04-09T16:26:07.406Z,100819.19
2023-04-09T16:29:09.858Z,100823.09
2023-04-09T16:32:12.291Z,100818.41
2023-04-09T16:35:14.709Z,100818.00
2023-04-09T16:38:17.471Z,100809.38
2023-04-09T16:41:19.803Z,100818.44
2023-04-09T16:44:22.318Z,100825.19
2023-04-09T16:47:24.722Z,100828.69
2023-04-09T16:50:27.550Z,100817.78
2023-04-09T16:53:30.022Z,100819.44
2023-04-09T16:56:32.348Z,100822.53
2023-04-09T16:59:34.628Z,100824.59
2023-04-09T17:02:43.056Z,100811.47
2023-04-09T17:05:49.469Z,100819.66
2023-04-09T17:08:52.268Z,100820.06
2023-04-09T17:11:54.754Z,100810.25
2023-04-09T17:14:58.020Z,100825.00
2023-04-09T17:18:00.647Z,100820.09
2023-04-09T17:21:03.396Z,100823.97
2023-04-09T17:24:06.004Z,100829.09
2023-04-09T17:27:08.711Z,100827.47
2023-04-09T17:30:12.320Z,100831.56
2023-04-09T17:33:14.775Z,100834.22
2023-04-09T17:36:20.781Z,100831.56
2023-04-09T17:39:26.663Z,100820.50
2023-04-09T17:42:29.814Z,100832.59
2023-04-09T17:45:32.088Z,100826.22
2023-04-09T17:48:37.868Z,100838.13
2023-04-09T17:51:40.267Z,100848.34
2023-04-09T17:54:45.397Z,100842.19
2023-04-09T17:57:48.101Z,100846.13
2023-04-09T18:00:50.738Z,100848.97
2023-04-09T18:03:53.291Z,100869.03
2023-04-09T18:06:56.280Z,100854.63
2023-04-09T18:09:59.023Z,100868.13
2023-04-09T18:13:01.306Z,100853.78
2023-04-09T18:16:03.864Z,100861.75
2023-04-09T18:19:06.733Z,100874.63
2023-04-09T18:22:09.467Z,100876.63
2023-04-09T18:25:11.885Z,100862.88
2023-04-09T18:28:14.177Z,100878.19
2023-04-09T18:31:17.042Z,100875.09
2023-04-09T18:34:22.198Z,100883.88
2023-04-09T18:37:24.806Z,100888.91
2023-04-09T18:40:27.106Z,100890.53
2023-04-09T18:43:32.170Z,100883.56
2023-04-09T18:46:34.592Z,100895.56
2023-04-09T18:49:37.427Z,100884.47
2023-04-09T18:52:39.709Z,100895.75
2023-04-09T18:55:41.959Z,100875.22
2023-04-09T18:58:44.246Z,100880.97
2023-04-09T19:01:47.139Z,100887.09
2023-04-09T19:04:52.854Z,100882.94
2023-04-09T19:08:02.883Z,100893.38
2023-04-09T19:11:06.516Z,100890.28
2023-04-09T19:14:08.815Z,100893.13
2023-04-09T19:17:15.140Z,100893.91
2023-04-09T19:20:18.350Z,100890.59
2023-04-09T19:23:23.921Z,100892.97
2023-04-09T19:26:26.689Z,100905.47
2023-04-09T19:29:28.988Z,100894.19
2023-04-09T19:32:31.587Z,100904.41
2023-04-09T19:35:35.837Z,100910.31
2023-04-09T19:38:38.169Z,100897.97
2023-04-09T19:41:40.720Z,100900.63
2023-04-09T19:44:44.647Z,100884.47
2023-04-09T19:47:46.982Z,100893.06
2023-04-09T19:50:49.520Z,100887.94
2023-04-09T19:53:51.858Z,100890.72
2023-04-09T19:56:54.328Z,100893.97
2023-04-09T19:59:57.937Z,100889.47
2023-04-09T20:03:00.811Z,100898.63
2023-04-09T20:06:09.245Z,100892.69
2023-04-09T20:09:14.401Z,100900.66
2023-04-09T20:12:16.841Z,100908.16
2023-04-09T20:15:22.457Z,100905.88
2023-04-09T20:18:24.839Z,100911.91
2023-04-09T20:21:27.998Z,100915.25
2023-04-09T20:24:30.837Z,100905.28
2023-04-09T20:27:33.232Z,100919.38
2023-04-09T20:30:35.638Z,100900.66
2023-04-09T20:33:38.068Z,100908.72
2023-04-09T20:36:43.738Z,100908.66
2023-04-09T20:39:46.025Z,100898.13
2023-04-09T20:42:48.642Z,100904.72
2023-04-09T20:45:52.739Z,100902.06
2023-04-09T20:48:55.904Z,100912.03
2023-04-09T20:51:58.364Z,100901.47
2023-04-09T20:55:00.933Z,100906.78
2023-04-09T20:58:05.760Z,100905.03
2023-04-09T21:01:09.980Z,100903.03
2023-04-09T21:04:12.947Z,100904.41
2023-04-09T21:07:15.695Z,100899.72
2023-04-09T21:10:18.086Z,100901.53
2023-04-09T21:13:20.614Z,100903.56
2023-04-09T21:16:23.305Z,100898.72
2023-04-09T21:19:25.844Z,100892.50
2023-04-09T21:22:28.188Z,100895.44
2023-04-09T21:25:30.561Z,100901.75
2023-04-09T21:28:32.887Z,100895.06
2023-04-09T21:31:36.601Z,100908.06
2023-04-09T21:34:39.653Z,100895.44
2023-04-09T21:37:42.103Z,100909.34
2023-04-09T21:40:46.452Z,100901.31
2023-04-09T21:43:48.744Z,100890.16
2023-04-09T21:46:51.048Z,100894.44
2023-04-09T21:49:53.394Z,100902.84
2023-04-09T21:52:56.308Z,100902.41
2023-04-09T21:55:58.557Z,100906.22
2023-04-09T21:59:01.377Z,100916.53
2023-04-09T22:02:05.007Z,100911.06
2023-04-09T22:05:07.855Z,100909.50
2023-04-09T22:08:10.190Z,100902.09
2023-04-09T22:11:12.685Z,100902.75
2023-04-09T22:14:16.651Z,100911.69
2023-04-09T22:17:18.952Z,100904.72
2023-04-09T22:20:21.412Z,100915.31
2023-04-09T22:23:23.731Z,100909.47
2023-04-09T22:26:26.071Z,100910.59
2023-04-09T22:29:29.180Z,100900.41
2023-04-09T22:32:33.549Z,100912.75
2023-04-09T22:35:36.498Z,100907.19
2023-04-09T22:38:38.789Z,100914.19
2023-04-09T22:41:41.237Z,100902.03
2023-04-09T22:44:43.505Z,100905.63
2023-04-09T22:47:45.928Z,100910.25
2023-04-09T22:50:48.824Z,100905.97
2023-04-09T22:53:51.198Z,100911.34
2023-04-09T22:56:53.523Z,100907.59
2023-04-09T22:59:55.763Z,100912.25
2023-04-09T23:02:58.269Z,100915.84
2023-04-09T23:06:00.723Z,100912.06
2023-04-09T23:09:03.272Z,100910.31
2023-04-09T23:12:05.710Z,100904.56
2023-04-09T23:15:08.491Z,100911.31
2023-04-09T23:18:10.864Z,100907.03
2023-04-09T23:21:13.127Z,100913.41
2023-04-09T23:24:15.430Z,100917.81
2023-04-09T23:27:17.727Z,100908.38
2023-04-09T23:30:21.737Z,100904.16
2023-04-09T23:33:24.037Z,100911.41
2023-04-09T23:36:26.808Z,100902.88
2023-04-09T23:39:29.108Z,100902.63
2023-04-09T23:42:33.789Z,100898.16
2023-04-09T23:45:36.102Z,100904.09
2023-04-09T23:48:38.404Z,100903.38
2023-04-09T23:51:40.660Z,100895.63
2023-04-09T23:54:49.681Z,100906.34
2023-04-09T23:57:52.014Z,100889.03
